sensor_id;sensor_type;location;lat;lon;timestamp;P1;durP1;ratioP1;P2;durP2;ratioP2
55417;SDS011;41287;47.554;7.844;2022-12-18T00:01:50;35.30;;;28.25;;
55417;SDS011;41287;47.554;7.844;2022-12-18T00:04:20;36.03;;;27.60;;
55417;SDS011;41287;47.554;7.844;2022-12-18T00:06:48;34.40;;;27.90;;
55417;SDS011;41287;47.554;7.844;2022-12-18T00:09:13;34.22;;;27.20;;
55417;SDS011;41287;47.554;7.844;2022-12-18T00:11:38;35.88;;;29.08;;
55417;SDS011;41287;47.554;7.844;2022-12-18T00:14:04;35.25;;;27.95;;
55417;SDS011;41287;47.554;7.844;2022-12-18T00:16:30;36.35;;;29.63;;
55417;SDS011;41287;47.554;7.844;2022-12-18T00:18:58;38.35;;;29.88;;
55417;SDS011;41287;47.554;7.844;2022-12-18T00:21:24;37.65;;;30.08;;
55417;SDS011;41287;47.554;7.844;2022-12-18T00:23:51;36.47;;;30.58;;
55417;SDS011;41287;47.554;7.844;2022-12-18T00:26:19;36.40;;;29.40;;
55417;SDS011;41287;47.554;7.844;2022-12-18T00:28:49;35.83;;;30.88;;
55417;SDS011;41287;47.554;7.844;2022-12-18T00:31:17;37.05;;;29.20;;
55417;SDS011;41287;47.554;7.844;2022-12-18T00:33:44;37.20;;;31.17;;
55417;SDS011;41287;47.554;7.844;2022-12-18T00:36:10;38.22;;;31.27;;
55417;SDS011;41287;47.554;7.844;2022-12-18T00:38:36;39.00;;;32.85;;
55417;SDS011;41287;47.554;7.844;2022-12-18T00:41:03;38.63;;;33.00;;
55417;SDS011;41287;47.554;7.844;2022-12-18T00:43:29;35.53;;;30.80;;
55417;SDS011;41287;47.554;7.844;2022-12-18T00:45:56;40.13;;;33.25;;
55417;SDS011;41287;47.554;7.844;2022-12-18T00:48:21;41.28;;;32.83;;
55417;SDS011;41287;47.554;7.844;2022-12-18T00:50:47;39.03;;;31.98;;
55417;SDS011;41287;47.554;7.844;2022-12-18T00:53:14;38.78;;;31.20;;
55417;SDS011;41287;47.554;7.844;2022-12-18T00:55:40;40.45;;;34.05;;
55417;SDS011;41287;47.554;7.844;2022-12-18T00:58:06;38.78;;;31.52;;
55417;SDS011;41287;47.554;7.844;2022-12-18T01:00:33;38.00;;;32.83;;
55417;SDS011;41287;47.554;7.844;2022-12-18T01:02:59;38.10;;;32.60;;
55417;SDS011;41287;47.554;7.844;2022-12-18T01:05:25;39.60;;;34.17;;
55417;SDS011;41287;47.554;7.844;2022-12-18T01:07:50;40.08;;;32.45;;
55417;SDS011;41287;47.554;7.844;2022-12-18T01:10:15;38.03;;;33.17;;
55417;SDS011;41287;47.554;7.844;2022-12-18T01:12:43;39.88;;;33.97;;
55417;SDS011;41287;47.554;7.844;2022-12-18T01:15:09;39.15;;;33.67;;
55417;SDS011;41287;47.554;7.844;2022-12-18T01:17:35;40.90;;;35.00;;
55417;SDS011;41287;47.554;7.844;2022-12-18T01:20:00;40.65;;;34.17;;
55417;SDS011;41287;47.554;7.844;2022-12-18T01:22:27;40.95;;;32.33;;
55417;SDS011;41287;47.554;7.844;2022-12-18T01:24:53;38.63;;;33.78;;
55417;SDS011;41287;47.554;7.844;2022-12-18T01:27:18;40.70;;;34.75;;
55417;SDS011;41287;47.554;7.844;2022-12-18T01:29:43;38.22;;;33.97;;
55417;SDS011;41287;47.554;7.844;2022-12-18T01:32:09;41.47;;;32.70;;
55417;SDS011;41287;47.554;7.844;2022-12-18T01:34:37;42.00;;;35.22;;
55417;SDS011;41287;47.554;7.844;2022-12-18T01:37:03;41.88;;;35.47;;
55417;SDS011;41287;47.554;7.844;2022-12-18T01:39:29;41.78;;;35.72;;
55417;SDS011;41287;47.554;7.844;2022-12-18T01:41:55;38.47;;;34.30;;
55417;SDS011;41287;47.554;7.844;2022-12-18T01:47:21;41.70;;;36.03;;
55417;SDS011;41287;47.554;7.844;2022-12-18T01:50:31;39.15;;;33.40;;
55417;SDS011;41287;47.554;7.844;2022-12-18T01:52:55;38.72;;;33.38;;
55417;SDS011;41287;47.554;7.844;2022-12-18T01:55:28;37.80;;;33.40;;
55417;SDS011;41287;47.554;7.844;2022-12-18T01:57:58;42.63;;;34.80;;
55417;SDS011;41287;47.554;7.844;2022-12-18T02:00:25;41.28;;;35.53;;
55417;SDS011;41287;47.554;7.844;2022-12-18T02:02:52;40.72;;;34.60;;
55417;SDS011;41287;47.554;7.844;2022-12-18T02:05:19;37.33;;;33.22;;
55417;SDS011;41287;47.554;7.844;2022-12-18T02:08:06;42.50;;;35.05;;
55417;SDS011;41287;47.554;7.844;2022-12-18T02:10:43;40.35;;;34.75;;
55417;SDS011;41287;47.554;7.844;2022-12-18T02:13:18;39.30;;;34.58;;
55417;SDS011;41287;47.554;7.844;2022-12-18T02:18:36;42.15;;;36.58;;
55417;SDS011;41287;47.554;7.844;2022-12-18T02:21:15;39.97;;;34.60;;
55417;SDS011;41287;47.554;7.844;2022-12-18T02:26:36;41.08;;;36.58;;
55417;SDS011;41287;47.554;7.844;2022-12-18T02:29:06;41.30;;;35.53;;
55417;SDS011;41287;47.554;7.844;2022-12-18T02:31:40;39.65;;;34.38;;
55417;SDS011;41287;47.554;7.844;2022-12-18T02:34:14;42.10;;;36.67;;
55417;SDS011;41287;47.554;7.844;2022-12-18T02:36:43;39.45;;;35.15;;
55417;SDS011;41287;47.554;7.844;2022-12-18T02:39:10;42.38;;;36.25;;
55417;SDS011;41287;47.554;7.844;2022-12-18T02:41:38;40.40;;;35.47;;
55417;SDS011;41287;47.554;7.844;2022-12-18T02:44:07;40.35;;;35.30;;
55417;SDS011;41287;47.554;7.844;2022-12-18T02:46:35;41.88;;;37.28;;
55417;SDS011;41287;47.554;7.844;2022-12-18T03:00:08;43.13;;;38.42;;
55417;SDS011;41287;47.554;7.844;2022-12-18T03:05:22;41.60;;;37.00;;
55417;SDS011;41287;47.554;7.844;2022-12-18T03:08:00;40.45;;;34.50;;
55417;SDS011;41287;47.554;7.844;2022-12-18T03:10:32;39.83;;;35.25;;
55417;SDS011;41287;47.554;7.844;2022-12-18T03:13:10;39.13;;;34.85;;
55417;SDS011;41287;47.554;7.844;2022-12-18T03:15:42;41.87;;;34.50;;
55417;SDS011;41287;47.554;7.844;2022-12-18T03:18:17;43.38;;;38.53;;
55417;SDS011;41287;47.554;7.844;2022-12-18T03:20:47;42.15;;;35.58;;
55417;SDS011;41287;47.554;7.844;2022-12-18T03:23:17;38.13;;;34.00;;
55417;SDS011;41287;47.554;7.844;2022-12-18T03:25:46;39.80;;;35.05;;
55417;SDS011;41287;47.554;7.844;2022-12-18T03:28:16;40.10;;;35.90;;
55417;SDS011;41287;47.554;7.844;2022-12-18T03:30:47;39.25;;;33.22;;
55417;SDS011;41287;47.554;7.844;2022-12-18T03:33:19;39.28;;;34.08;;
55417;SDS011;41287;47.554;7.844;2022-12-18T03:35:50;41.10;;;36.60;;
55417;SDS011;41287;47.554;7.844;2022-12-18T03:38:16;40.60;;;36.25;;
55417;SDS011;41287;47.554;7.844;2022-12-18T03:40:49;39.15;;;34.88;;
55417;SDS011;41287;47.554;7.844;2022-12-18T03:46:06;38.95;;;34.53;;
55417;SDS011;41287;47.554;7.844;2022-12-18T03:48:38;41.40;;;36.92;;
55417;SDS011;41287;47.554;7.844;2022-12-18T03:51:22;40.28;;;35.97;;
55417;SDS011;41287;47.554;7.844;2022-12-18T03:56:27;41.83;;;37.30;;
55417;SDS011;41287;47.554;7.844;2022-12-18T03:58:55;40.50;;;36.00;;
55417;SDS011;41287;47.554;7.844;2022-12-18T04:01:28;41.13;;;35.45;;
55417;SDS011;41287;47.554;7.844;2022-12-18T04:03:58;39.25;;;34.38;;
55417;SDS011;41287;47.554;7.844;2022-12-18T04:06:25;38.75;;;33.70;;
55417;SDS011;41287;47.554;7.844;2022-12-18T04:08:52;38.70;;;33.55;;
55417;SDS011;41287;47.554;7.844;2022-12-18T04:11:21;41.08;;;36.17;;
55417;SDS011;41287;47.554;7.844;2022-12-18T04:13:46;38.83;;;34.72;;
55417;SDS011;41287;47.554;7.844;2022-12-18T04:16:12;40.28;;;34.67;;
55417;SDS011;41287;47.554;7.844;2022-12-18T04:18:37;41.03;;;34.58;;
55417;SDS011;41287;47.554;7.844;2022-12-18T04:21:04;36.22;;;32.33;;
55417;SDS011;41287;47.554;7.844;2022-12-18T04:23:29;40.72;;;36.03;;
55417;SDS011;41287;47.554;7.844;2022-12-18T04:25:55;39.13;;;34.13;;
55417;SDS011;41287;47.554;7.844;2022-12-18T04:28:20;39.67;;;35.35;;
55417;SDS011;41287;47.554;7.844;2022-12-18T04:30:46;40.97;;;36.47;;
55417;SDS011;41287;47.554;7.844;2022-12-18T04:33:12;37.75;;;33.65;;
55417;SDS011;41287;47.554;7.844;2022-12-18T04:35:42;39.45;;;34.38;;
55417;SDS011;41287;47.554;7.844;2022-12-18T04:38:07;39.00;;;34.75;;
55417;SDS011;41287;47.554;7.844;2022-12-18T04:40:34;37.80;;;33.58;;
55417;SDS011;41287;47.554;7.844;2022-12-18T04:43:02;37.65;;;33.55;;
55417;SDS011;41287;47.554;7.844;2022-12-18T04:45:29;39.75;;;35.13;;
55417;SDS011;41287;47.554;7.844;2022-12-18T04:47:56;41.25;;;35.95;;
55417;SDS011;41287;47.554;7.844;2022-12-18T04:50:23;41.25;;;36.85;;
55417;SDS011;41287;47.554;7.844;2022-12-18T04:52:49;39.30;;;34.80;;
55417;SDS011;41287;47.554;7.844;2022-12-18T04:55:14;38.55;;;34.45;;
55417;SDS011;41287;47.554;7.844;2022-12-18T04:57:39;39.10;;;34.90;;
55417;SDS011;41287;47.554;7.844;2022-12-18T05:00:07;40.00;;;35.53;;
55417;SDS011;41287;47.554;7.844;2022-12-18T05:02:35;39.40;;;35.20;;
55417;SDS011;41287;47.554;7.844;2022-12-18T05:05:00;39.42;;;34.65;;
55417;SDS011;41287;47.554;7.844;2022-12-18T05:07:25;38.50;;;34.08;;
55417;SDS011;41287;47.554;7.844;2022-12-18T05:09:51;39.08;;;34.88;;
55417;SDS011;41287;47.554;7.844;2022-12-18T05:12:16;38.72;;;34.58;;
55417;SDS011;41287;47.554;7.844;2022-12-18T05:14:42;37.95;;;33.28;;
55417;SDS011;41287;47.554;7.844;2022-12-18T05:17:07;38.67;;;33.90;;
55417;SDS011;41287;47.554;7.844;2022-12-18T05:19:32;39.17;;;33.35;;
55417;SDS011;41287;47.554;7.844;2022-12-18T05:21:58;40.55;;;36.15;;
55417;SDS011;41287;47.554;7.844;2022-12-18T05:24:23;38.80;;;33.63;;
55417;SDS011;41287;47.554;7.844;2022-12-18T05:26:52;36.55;;;31.58;;
55417;SDS011;41287;47.554;7.844;2022-12-18T05:29:17;38.45;;;33.45;;
55417;SDS011;41287;47.554;7.844;2022-12-18T05:31:43;37.80;;;33.70;;
55417;SDS011;41287;47.554;7.844;2022-12-18T05:34:08;36.45;;;31.73;;
55417;SDS011;41287;47.554;7.844;2022-12-18T05:36:33;38.95;;;34.78;;
55417;SDS011;41287;47.554;7.844;2022-12-18T05:39:01;37.22;;;33.33;;
55417;SDS011;41287;47.554;7.844;2022-12-18T05:41:26;37.10;;;33.08;;
55417;SDS011;41287;47.554;7.844;2022-12-18T05:43:52;38.60;;;33.15;;
55417;SDS011;41287;47.554;7.844;2022-12-18T05:46:17;37.75;;;32.15;;
55417;SDS011;41287;47.554;7.844;2022-12-18T05:48:43;37.58;;;33.55;;
55417;SDS011;41287;47.554;7.844;2022-12-18T05:51:10;36.08;;;32.08;;
55417;SDS011;41287;47.554;7.844;2022-12-18T05:53:37;39.72;;;34.15;;
55417;SDS011;41287;47.554;7.844;2022-12-18T05:56:04;36.92;;;32.45;;
55417;SDS011;41287;47.554;7.844;2022-12-18T05:58:32;38.33;;;32.58;;
55417;SDS011;41287;47.554;7.844;2022-12-18T06:01:05;36.90;;;32.55;;
55417;SDS011;41287;47.554;7.844;2022-12-18T06:03:39;35.92;;;31.83;;
55417;SDS011;41287;47.554;7.844;2022-12-18T06:06:12;38.08;;;34.03;;
55417;SDS011;41287;47.554;7.844;2022-12-18T06:08:48;37.53;;;33.53;;
55417;SDS011;41287;47.554;7.844;2022-12-18T06:11:16;38.33;;;34.15;;
55417;SDS011;41287;47.554;7.844;2022-12-18T06:13:42;37.13;;;32.85;;
55417;SDS011;41287;47.554;7.844;2022-12-18T06:16:08;35.58;;;31.02;;
55417;SDS011;41287;47.554;7.844;2022-12-18T06:18:33;36.33;;;32.45;;
55417;SDS011;41287;47.554;7.844;2022-12-18T06:20:59;37.17;;;32.55;;
55417;SDS011;41287;47.554;7.844;2022-12-18T06:23:28;37.17;;;33.17;;
55417;SDS011;41287;47.554;7.844;2022-12-18T06:25:54;35.97;;;32.08;;
55417;SDS011;41287;47.554;7.844;2022-12-18T06:28:19;37.15;;;33.08;;
55417;SDS011;41287;47.554;7.844;2022-12-18T06:30:45;35.42;;;31.65;;
55417;SDS011;41287;47.554;7.844;2022-12-18T06:33:11;36.67;;;32.83;;
55417;SDS011;41287;47.554;7.844;2022-12-18T06:35:40;36.70;;;32.80;;
55417;SDS011;41287;47.554;7.844;2022-12-18T06:38:05;36.78;;;32.28;;
55417;SDS011;41287;47.554;7.844;2022-12-18T06:40:31;35.25;;;29.92;;
55417;SDS011;41287;47.554;7.844;2022-12-18T06:42:57;33.83;;;29.52;;
55417;SDS011;41287;47.554;7.844;2022-12-18T06:45:22;34.65;;;30.95;;
55417;SDS011;41287;47.554;7.844;2022-12-18T06:47:50;33.42;;;28.48;;
55417;SDS011;41287;47.554;7.844;2022-12-18T06:50:16;34.92;;;31.20;;
55417;SDS011;41287;47.554;7.844;2022-12-18T06:52:41;35.20;;;31.30;;
55417;SDS011;41287;47.554;7.844;2022-12-18T06:55:09;36.67;;;30.95;;
55417;SDS011;41287;47.554;7.844;2022-12-18T06:57:35;32.92;;;29.20;;
55417;SDS011;41287;47.554;7.844;2022-12-18T07:00:04;32.92;;;29.25;;
55417;SDS011;41287;47.554;7.844;2022-12-18T07:02:31;34.92;;;30.80;;
55417;SDS011;41287;47.554;7.844;2022-12-18T07:04:57;35.25;;;31.42;;
55417;SDS011;41287;47.554;7.844;2022-12-18T07:07:22;35.78;;;31.98;;
55417;SDS011;41287;47.554;7.844;2022-12-18T07:09:49;34.90;;;30.27;;
55417;SDS011;41287;47.554;7.844;2022-12-18T07:12:15;36.05;;;31.40;;
55417;SDS011;41287;47.554;7.844;2022-12-18T07:14:41;34.75;;;31.05;;
55417;SDS011;41287;47.554;7.844;2022-12-18T07:17:06;35.50;;;30.27;;
55417;SDS011;41287;47.554;7.844;2022-12-18T07:19:32;34.35;;;30.60;;
55417;SDS011;41287;47.554;7.844;2022-12-18T07:21:58;35.90;;;31.65;;
55417;SDS011;41287;47.554;7.844;2022-12-18T07:24:23;32.97;;;28.83;;
55417;SDS011;41287;47.554;7.844;2022-12-18T07:26:48;34.15;;;30.48;;
55417;SDS011;41287;47.554;7.844;2022-12-18T07:29:14;33.83;;;29.55;;
55417;SDS011;41287;47.554;7.844;2022-12-18T07:31:39;33.78;;;30.15;;
55417;SDS011;41287;47.554;7.844;2022-12-18T07:34:10;33.38;;;29.77;;
55417;SDS011;41287;47.554;7.844;2022-12-18T07:36:38;34.00;;;30.30;;
55417;SDS011;41287;47.554;7.844;2022-12-18T07:39:04;34.55;;;30.70;;
55417;SDS011;41287;47.554;7.844;2022-12-18T07:41:29;34.00;;;29.85;;
55417;SDS011;41287;47.554;7.844;2022-12-18T07:43:55;34.40;;;30.10;;
55417;SDS011;41287;47.554;7.844;2022-12-18T07:46:20;31.50;;;27.52;;
55417;SDS011;41287;47.554;7.844;2022-12-18T07:48:45;31.92;;;27.55;;
55417;SDS011;41287;47.554;7.844;2022-12-18T07:51:11;31.67;;;23.23;;
55417;SDS011;41287;47.554;7.844;2022-12-18T07:53:37;28.73;;;24.13;;
55417;SDS011;41287;47.554;7.844;2022-12-18T07:56:03;30.45;;;24.95;;
55417;SDS011;41287;47.554;7.844;2022-12-18T07:58:32;26.45;;;22.17;;
55417;SDS011;41287;47.554;7.844;2022-12-18T08:01:06;26.65;;;21.67;;
55417;SDS011;41287;47.554;7.844;2022-12-18T08:03:33;25.50;;;20.70;;
55417;SDS011;41287;47.554;7.844;2022-12-18T08:05:59;24.30;;;20.15;;
55417;SDS011;41287;47.554;7.844;2022-12-18T08:08:26;22.63;;;19.13;;
55417;SDS011;41287;47.554;7.844;2022-12-18T08:10:52;23.65;;;19.63;;
55417;SDS011;41287;47.554;7.844;2022-12-18T08:13:17;25.13;;;19.52;;
55417;SDS011;41287;47.554;7.844;2022-12-18T08:15:43;21.15;;;17.85;;
55417;SDS011;41287;47.554;7.844;2022-12-18T08:18:08;22.25;;;18.17;;
55417;SDS011;41287;47.554;7.844;2022-12-18T08:20:33;20.42;;;16.85;;
55417;SDS011;41287;47.554;7.844;2022-12-18T08:22:59;23.02;;;17.48;;
55417;SDS011;41287;47.554;7.844;2022-12-18T08:25:26;20.27;;;16.85;;
55417;SDS011;41287;47.554;7.844;2022-12-18T08:27:51;20.40;;;16.58;;
55417;SDS011;41287;47.554;7.844;2022-12-18T08:30:17;19.63;;;16.10;;
55417;SDS011;41287;47.554;7.844;2022-12-18T08:32:42;18.83;;;15.73;;
55417;SDS011;41287;47.554;7.844;2022-12-18T08:35:08;19.38;;;15.32;;
55417;SDS011;41287;47.554;7.844;2022-12-18T08:37:33;19.10;;;15.48;;
55417;SDS011;41287;47.554;7.844;2022-12-18T08:39:59;18.10;;;14.40;;
55417;SDS011;41287;47.554;7.844;2022-12-18T08:42:25;18.25;;;14.93;;
55417;SDS011;41287;47.554;7.844;2022-12-18T08:45:08;18.25;;;14.15;;
55417;SDS011;41287;47.554;7.844;2022-12-18T08:47:34;21.63;;;19.33;;
55417;SDS011;41287;47.554;7.844;2022-12-18T08:49:59;19.17;;;15.57;;
55417;SDS011;41287;47.554;7.844;2022-12-18T08:52:24;18.45;;;15.52;;
55417;SDS011;41287;47.554;7.844;2022-12-18T08:54:50;15.95;;;12.75;;
55417;SDS011;41287;47.554;7.844;2022-12-18T08:57:15;17.08;;;13.75;;
55417;SDS011;41287;47.554;7.844;2022-12-18T08:59:41;15.35;;;12.23;;
55417;SDS011;41287;47.554;7.844;2022-12-18T09:02:08;16.35;;;12.55;;
55417;SDS011;41287;47.554;7.844;2022-12-18T09:04:35;15.52;;;12.40;;
55417;SDS011;41287;47.554;7.844;2022-12-18T09:07:00;15.90;;;12.32;;
55417;SDS011;41287;47.554;7.844;2022-12-18T09:09:27;15.73;;;12.10;;
55417;SDS011;41287;47.554;7.844;2022-12-18T09:11:53;15.32;;;12.38;;
55417;SDS011;41287;47.554;7.844;2022-12-18T09:14:18;24.52;;;21.00;;
55417;SDS011;41287;47.554;7.844;2022-12-18T09:16:43;31.25;;;27.45;;
55417;SDS011;41287;47.554;7.844;2022-12-18T09:19:12;33.60;;;28.67;;
55417;SDS011;41287;47.554;7.844;2022-12-18T09:21:37;33.50;;;28.75;;
55417;SDS011;41287;47.554;7.844;2022-12-18T09:24:08;35.00;;;31.05;;
55417;SDS011;41287;47.554;7.844;2022-12-18T09:26:37;35.40;;;30.98;;
55417;SDS011;41287;47.554;7.844;2022-12-18T09:29:03;37.22;;;32.45;;
55417;SDS011;41287;47.554;7.844;2022-12-18T09:31:28;35.15;;;29.75;;
55417;SDS011;41287;47.554;7.844;2022-12-18T09:33:54;36.72;;;31.77;;
55417;SDS011;41287;47.554;7.844;2022-12-18T09:36:20;37.00;;;32.97;;
55417;SDS011;41287;47.554;7.844;2022-12-18T09:38:45;33.60;;;29.98;;
55417;SDS011;41287;47.554;7.844;2022-12-18T09:41:20;33.08;;;28.70;;
55417;SDS011;41287;47.554;7.844;2022-12-18T09:46:38;32.53;;;28.83;;
55417;SDS011;41287;47.554;7.844;2022-12-18T09:49:12;33.00;;;28.05;;
55417;SDS011;41287;47.554;7.844;2022-12-18T09:51:45;32.00;;;26.52;;
55417;SDS011;41287;47.554;7.844;2022-12-18T09:54:22;32.15;;;26.05;;
55417;SDS011;41287;47.554;7.844;2022-12-18T09:56:51;27.42;;;23.40;;
55417;SDS011;41287;47.554;7.844;2022-12-18T09:59:18;29.45;;;23.15;;
55417;SDS011;41287;47.554;7.844;2022-12-18T10:01:48;30.52;;;23.75;;
55417;SDS011;41287;47.554;7.844;2022-12-18T10:04:14;28.67;;;23.33;;
55417;SDS011;41287;47.554;7.844;2022-12-18T10:06:45;27.10;;;22.35;;
55417;SDS011;41287;47.554;7.844;2022-12-18T10:09:44;25.73;;;21.80;;
55417;SDS011;41287;47.554;7.844;2022-12-18T10:15:06;29.67;;;23.00;;
55417;SDS011;41287;47.554;7.844;2022-12-18T10:17:51;27.83;;;20.20;;
55417;SDS011;41287;47.554;7.844;2022-12-18T10:20:27;25.83;;;21.05;;
55417;SDS011;41287;47.554;7.844;2022-12-18T10:25:50;25.85;;;20.45;;
55417;SDS011;41287;47.554;7.844;2022-12-18T10:28:20;22.95;;;18.10;;
55417;SDS011;41287;47.554;7.844;2022-12-18T10:30:47;26.83;;;19.60;;
55417;SDS011;41287;47.554;7.844;2022-12-18T10:33:17;23.83;;;18.55;;
55417;SDS011;41287;47.554;7.844;2022-12-18T10:35:47;24.70;;;19.92;;
55417;SDS011;41287;47.554;7.844;2022-12-18T10:40:48;24.38;;;19.13;;
55417;SDS011;41287;47.554;7.844;2022-12-18T10:43:14;25.13;;;19.20;;
55417;SDS011;41287;47.554;7.844;2022-12-18T10:45:41;25.70;;;19.55;;
55417;SDS011;41287;47.554;7.844;2022-12-18T10:48:22;24.65;;;18.98;;
55417;SDS011;41287;47.554;7.844;2022-12-18T10:50:49;24.35;;;18.65;;
55417;SDS011;41287;47.554;7.844;2022-12-18T10:53:19;25.85;;;18.98;;
55417;SDS011;41287;47.554;7.844;2022-12-18T10:55:47;23.02;;;18.67;;
55417;SDS011;41287;47.554;7.844;2022-12-18T10:58:15;23.90;;;18.48;;
55417;SDS011;41287;47.554;7.844;2022-12-18T11:00:45;23.30;;;18.48;;
55417;SDS011;41287;47.554;7.844;2022-12-18T11:03:34;22.20;;;18.05;;
55417;SDS011;41287;47.554;7.844;2022-12-18T11:06:03;21.88;;;16.15;;
55417;SDS011;41287;47.554;7.844;2022-12-18T11:08:34;23.23;;;16.20;;
55417;SDS011;41287;47.554;7.844;2022-12-18T11:11:00;26.40;;;17.42;;
55417;SDS011;41287;47.554;7.844;2022-12-18T11:13:27;23.70;;;17.27;;
55417;SDS011;41287;47.554;7.844;2022-12-18T11:16:00;23.20;;;16.00;;
55417;SDS011;41287;47.554;7.844;2022-12-18T11:20:54;22.00;;;15.98;;
55417;SDS011;41287;47.554;7.844;2022-12-18T11:23:32;21.15;;;15.85;;
55417;SDS011;41287;47.554;7.844;2022-12-18T11:25:59;21.52;;;16.48;;
55417;SDS011;41287;47.554;7.844;2022-12-18T11:28:40;21.50;;;15.43;;
55417;SDS011;41287;47.554;7.844;2022-12-18T11:34:08;21.25;;;16.15;;
55417;SDS011;41287;47.554;7.844;2022-12-18T11:36:38;22.17;;;15.75;;
55417;SDS011;41287;47.554;7.844;2022-12-18T11:39:12;19.90;;;14.85;;
55417;SDS011;41287;47.554;7.844;2022-12-18T11:41:54;19.73;;;15.43;;
55417;SDS011;41287;47.554;7.844;2022-12-18T11:53:02;21.50;;;14.90;;
55417;SDS011;41287;47.554;7.844;2022-12-18T11:55:39;17.38;;;13.05;;
55417;SDS011;41287;47.554;7.844;2022-12-18T11:58:17;18.98;;;14.55;;
55417;SDS011;41287;47.554;7.844;2022-12-18T12:03:39;19.92;;;14.35;;
55417;SDS011;41287;47.554;7.844;2022-12-18T12:09:19;18.17;;;13.60;;
55417;SDS011;41287;47.554;7.844;2022-12-18T12:11:58;18.27;;;13.93;;
55417;SDS011;41287;47.554;7.844;2022-12-18T12:17:03;18.30;;;13.60;;
55417;SDS011;41287;47.554;7.844;2022-12-18T12:20:06;17.50;;;12.80;;
55417;SDS011;41287;47.554;7.844;2022-12-18T12:22:49;20.45;;;14.05;;
55417;SDS011;41287;47.554;7.844;2022-12-18T12:28:15;18.45;;;13.55;;
55417;SDS011;41287;47.554;7.844;2022-12-18T12:39:36;21.67;;;14.50;;
55417;SDS011;41287;47.554;7.844;2022-12-18T12:42:05;20.30;;;13.77;;
55417;SDS011;41287;47.554;7.844;2022-12-18T12:44:59;22.38;;;14.68;;
55417;SDS011;41287;47.554;7.844;2022-12-18T12:47:31;20.58;;;14.23;;
55417;SDS011;41287;47.554;7.844;2022-12-18T12:50:02;22.88;;;14.30;;
55417;SDS011;41287;47.554;7.844;2022-12-18T12:52:32;18.60;;;13.05;;
55417;SDS011;41287;47.554;7.844;2022-12-18T12:54:59;20.75;;;13.65;;
55417;SDS011;41287;47.554;7.844;2022-12-18T12:57:39;23.35;;;14.80;;
55417;SDS011;41287;47.554;7.844;2022-12-18T13:00:13;19.17;;;12.25;;
55417;SDS011;41287;47.554;7.844;2022-12-18T13:02:47;19.15;;;13.07;;
55417;SDS011;41287;47.554;7.844;2022-12-18T13:08:27;19.98;;;13.95;;
55417;SDS011;41287;47.554;7.844;2022-12-18T13:10:55;19.52;;;14.27;;
55417;SDS011;41287;47.554;7.844;2022-12-18T13:13:48;21.65;;;13.70;;
55417;SDS011;41287;47.554;7.844;2022-12-18T13:16:19;18.98;;;13.18;;
55417;SDS011;41287;47.554;7.844;2022-12-18T13:18:50;21.73;;;13.13;;
55417;SDS011;41287;47.554;7.844;2022-12-18T13:21:29;23.13;;;12.88;;
55417;SDS011;41287;47.554;7.844;2022-12-18T13:23:57;19.83;;;13.63;;
55417;SDS011;41287;47.554;7.844;2022-12-18T13:26:47;18.33;;;12.55;;
55417;SDS011;41287;47.554;7.844;2022-12-18T13:29:13;23.48;;;14.50;;
55417;SDS011;41287;47.554;7.844;2022-12-18T13:32:15;19.70;;;13.05;;
55417;SDS011;41287;47.554;7.844;2022-12-18T13:34:45;19.05;;;13.65;;
55417;SDS011;41287;47.554;7.844;2022-12-18T13:39:58;19.35;;;12.90;;
55417;SDS011;41287;47.554;7.844;2022-12-18T13:45:59;20.27;;;12.98;;
55417;SDS011;41287;47.554;7.844;2022-12-18T13:48:24;19.15;;;12.32;;
55417;SDS011;41287;47.554;7.844;2022-12-18T13:50:56;20.85;;;14.38;;
55417;SDS011;41287;47.554;7.844;2022-12-18T13:53:30;19.92;;;13.52;;
55417;SDS011;41287;47.554;7.844;2022-12-18T13:55:59;19.08;;;12.57;;
55417;SDS011;41287;47.554;7.844;2022-12-18T13:58:24;20.88;;;12.68;;
55417;SDS011;41287;47.554;7.844;2022-12-18T14:00:52;18.80;;;12.60;;
55417;SDS011;41287;47.554;7.844;2022-12-18T14:03:19;18.98;;;11.90;;
55417;SDS011;41287;47.554;7.844;2022-12-18T14:05:54;23.27;;;12.90;;
55417;SDS011;41287;47.554;7.844;2022-12-18T14:08:27;19.77;;;11.82;;
55417;SDS011;41287;47.554;7.844;2022-12-18T14:10:58;18.63;;;11.95;;
55417;SDS011;41287;47.554;7.844;2022-12-18T14:13:28;17.88;;;12.95;;
55417;SDS011;41287;47.554;7.844;2022-12-18T14:15:55;17.85;;;12.88;;
55417;SDS011;41287;47.554;7.844;2022-12-18T14:20:50;17.52;;;11.05;;
55417;SDS011;41287;47.554;7.844;2022-12-18T14:23:34;19.58;;;11.85;;
55417;SDS011;41287;47.554;7.844;2022-12-18T14:28:29;18.23;;;12.50;;
55417;SDS011;41287;47.554;7.844;2022-12-18T14:30:54;19.38;;;12.52;;
55417;SDS011;41287;47.554;7.844;2022-12-18T14:33:24;18.33;;;11.93;;
55417;SDS011;41287;47.554;7.844;2022-12-18T14:35:56;17.27;;;11.00;;
55417;SDS011;41287;47.554;7.844;2022-12-18T14:40:56;17.67;;;11.68;;
55417;SDS011;41287;47.554;7.844;2022-12-18T14:43:42;18.75;;;11.20;;
55417;SDS011;41287;47.554;7.844;2022-12-18T14:49:00;19.48;;;11.35;;
55417;SDS011;41287;47.554;7.844;2022-12-18T14:51:42;19.83;;;11.50;;
55417;SDS011;41287;47.554;7.844;2022-12-18T14:54:17;15.55;;;11.07;;
55417;SDS011;41287;47.554;7.844;2022-12-18T14:56:45;17.80;;;10.80;;
55417;SDS011;41287;47.554;7.844;2022-12-18T14:59:13;20.88;;;11.07;;
55417;SDS011;41287;47.554;7.844;2022-12-18T15:01:45;17.48;;;10.93;;
55417;SDS011;41287;47.554;7.844;2022-12-18T15:04:28;16.77;;;11.40;;
55417;SDS011;41287;47.554;7.844;2022-12-18T15:09:43;17.92;;;11.02;;
55417;SDS011;41287;47.554;7.844;2022-12-18T15:12:26;16.45;;;11.57;;
55417;SDS011;41287;47.554;7.844;2022-12-18T15:15:02;16.80;;;10.88;;
55417;SDS011;41287;47.554;7.844;2022-12-18T15:17:30;16.48;;;10.35;;
55417;SDS011;41287;47.554;7.844;2022-12-18T15:20:00;17.13;;;11.18;;
55417;SDS011;41287;47.554;7.844;2022-12-18T15:22:29;16.33;;;10.85;;
55417;SDS011;41287;47.554;7.844;2022-12-18T15:24:58;17.20;;;10.32;;
55417;SDS011;41287;47.554;7.844;2022-12-18T15:32:37;15.63;;;10.75;;
55417;SDS011;41287;47.554;7.844;2022-12-18T15:37:42;14.95;;;10.63;;
55417;SDS011;41287;47.554;7.844;2022-12-18T15:40:28;17.10;;;11.07;;
55417;SDS011;41287;47.554;7.844;2022-12-18T15:42:53;17.02;;;9.77;;
55417;SDS011;41287;47.554;7.844;2022-12-18T15:45:39;16.17;;;10.00;;
55417;SDS011;41287;47.554;7.844;2022-12-18T15:48:10;17.00;;;9.80;;
55417;SDS011;41287;47.554;7.844;2022-12-18T15:50:44;15.20;;;10.30;;
55417;SDS011;41287;47.554;7.844;2022-12-18T15:53:12;17.00;;;11.20;;
55417;SDS011;41287;47.554;7.844;2022-12-18T15:55:37;17.00;;;10.63;;
55417;SDS011;41287;47.554;7.844;2022-12-18T15:58:21;17.60;;;10.82;;
55417;SDS011;41287;47.554;7.844;2022-12-18T16:00:46;15.68;;;9.40;;
55417;SDS011;41287;47.554;7.844;2022-12-18T16:03:14;15.65;;;10.07;;
55417;SDS011;41287;47.554;7.844;2022-12-18T16:05:39;15.25;;;9.85;;
55417;SDS011;41287;47.554;7.844;2022-12-18T16:08:05;16.30;;;10.57;;
55417;SDS011;41287;47.554;7.844;2022-12-18T16:10:30;16.10;;;10.27;;
55417;SDS011;41287;47.554;7.844;2022-12-18T16:12:55;14.82;;;9.63;;
55417;SDS011;41287;47.554;7.844;2022-12-18T16:15:21;14.38;;;9.23;;
55417;SDS011;41287;47.554;7.844;2022-12-18T16:17:46;15.23;;;10.00;;